Pagina principale
METAR-TAF:

METAR-TAF

Aeroporti :

Aeroporto di Marsa Matruh

Marsa Matruh, Egitto

latitudine: 31-20N, longitudine: 027-13E, altezza: 25 m

Osservazione

Il bollettino è stato emesso 1 ora e 5 minuti fa, alle 05:00 UTC
Vento calmo
Temperature 17°C
Umidità 77%
Pressione 1015 hPa
Visibilità 10 km o più
nessuna nube inferiore a 1500 m e nessun cumulonembo

METAR: HEMM 180500Z 00000KT CAVOK 17/13 Q1015 NOSIG

Ora: 08:05 (06:05 UTC)

Previsione

Il bollettino è stato emesso 1 ora e 5 minuti fa, alle 05:00 UTC
Previsione valida dal 18 alle 06 UTC al 19 alle 12 UTC
Vento 6 kt da est/sud-est
Visibilità 10 km o più
Poco nuvoloso ad un'altezza di 2000 ft
Evoluzione graduale
dal 18 alle 10 UTC al 18 alle 12 UTC
Vento 10 kt da est/nord-est
Nubi sparse ad un'altezza di 2000 ft

TAF: HEMM 180500Z 1806/1912 12006KT 9999 FEW020 BECMG 1810/1812 06010KT SCT020

Osservazioni e previsioni meteorologiche di più di 4000 aeroporti (messaggi METAR e TAF).

Le stazioni disponibili sono rappresentate dai dischi gialli e rossi sulla carta.

Puntare il mouse per vedere il nome della stazione.

Clicca sopra per visualizzare le osservazioni e previsioni meteorologiche.

Per cambiare la mappa : fare clic sui pulsanti verdi con una croce nera per ingrandire, il pulsante verde con un trattino per diminuire, o sulla freccia verde per le mappe adiacenti.


METAR-TAF: